EmailTwitter


Observations de surface / Québec / CYUL (71627)

Régions: Québec | Canada | États-Unis | Europe | France | UK | Elsewhere
Station
Affichage
Infos & localisation pour CYUL (71627) | Aide pour décoder les METARs

Observations prises le 2017-05-28 à 20H00 UTC à MONTREAL INTL A, QB (CYUL)

Etat du ciel: partiellement nuageux.

Température: 25.0 Celsius

Point de rosée: 11.0 Celsius

Humidité relative: 41%

Indice Humidex: 27.

Vents: Sud-sud-est à 15 km/h ou 8 noeuds.

Rafale du vent: 28 km/h ou 15 noeuds.

Pression au niveau moyen de la mer: 101.07 kilopascals.

Calage altimétrique: 101.05 kilopascals ou 29.84 pouces de mercure.

Visibilité horizontale: 30.00 milles terrestres ou 48.00 kilomètres.

Hauteur du plafond: 7620 mètres ( 25000 pieds ).

Observation METAR:

CYUL 282000Z 16008G15KT 120V190 30SM FEW060TCU FEW080 BKN250 25/11 A2984 RMK

TCU1AC1CI5 TCU TR AC TR SLP107 DENSITY ALT 1400FT=